Pagina principale
METAR-TAF:

METAR-TAF

Aeroporti :

Aeroporto di Gioia del Colle

Gioia del Colle, Italia

latitudine: 40-46N, longitudine: 016-56E, altezza: 345 m

Osservazione

Il bollettino è stato emesso 50 minuti fa, alle 19:55 UTC
Vento 2 kt da ovest/nord-ovest
Temperature 19°C
Umidità 78%
Pressione 1017 hPa
Visibilità 10 km o più
nessuna nube inferiore a 1500 m e nessun cumulonembo

METAR: LIBV 161955Z 30002KT CAVOK 19/15 Q1017 RMK SCT SCT200 VIS MIN 9999 WIND THR32 04002KT WIND THR14 31001KT BLU

Ora: 22:45 (20:45 UTC)

Previsione

Il bollettino è stato emesso 45 minuti fa, alle 20:00 UTC
Previsione valida dal 16 alle 21 UTC al 17 alle 06 UTC
Vento 6 kt da nord/nord-ovest
Visibilità 10 km o più
nessuna nube inferiore a 1500 m e nessun cumulonembo

TAF: LIBV 162000Z 1621/1706 33006KT CAVOK

Osservazioni e previsioni meteorologiche di più di 4000 aeroporti (messaggi METAR e TAF).

Le stazioni disponibili sono rappresentate dai dischi gialli e rossi sulla carta.

Puntare il mouse per vedere il nome della stazione.

Clicca sopra per visualizzare le osservazioni e previsioni meteorologiche.

Per cambiare la mappa : fare clic sui pulsanti verdi con una croce nera per ingrandire, il pulsante verde con un trattino per diminuire, o sulla freccia verde per le mappe adiacenti.


METAR-TAF: